Time;durP1;ratioP1;P1;durP2;ratioP2;P2;SDS_P1;SDS_P2;PMS_P1;PMS_P2;Temp;Humidity;BMP_temperature;BMP_pressure;BME280_temperature;BME280_humidity;BME280_pressure;Samples;Min_cycle;Max_cycle;Signal;HPM_P1;HPM_P2
2021/07/09 00:02:34;;;;;;;5.40;3.67;;;18.10;99.90;;;;;;6125807;23;20163;-82
2021/07/09 00:05:00;;;;;;;7.15;4.20;;;17.90;99.90;;;;;;6126043;23;20165;-82
2021/07/09 00:07:29;;;;;;;7.22;4.43;;;17.80;99.90;;;;;;6126595;23;20177;-82
2021/07/09 00:09:55;;;;;;;6.47;4.03;;;18.00;99.90;;;;;;6126243;23;20201;-82
2021/07/09 00:12:22;;;;;;;7.18;4.35;;;17.80;99.90;;;;;;6125611;23;20268;-82
2021/07/09 00:14:49;;;;;;;6.72;4.88;;;17.90;99.90;;;;;;6125709;23;20264;-83
2021/07/09 00:17:16;;;;;;;5.53;4.03;;;17.80;99.90;;;;;;6125958;23;20292;-82
2021/07/09 00:19:43;;;;;;;4.32;3.90;;;17.70;99.90;;;;;;6127032;23;20667;-82
2021/07/09 00:22:10;;;;;;;5.72;4.22;;;17.70;99.90;;;;;;6126000;23;20236;-83
2021/07/09 00:24:39;;;;;;;7.65;4.10;;;17.70;99.90;;;;;;6126310;23;20260;-83
2021/07/09 00:27:06;;;;;;;8.13;3.97;;;17.60;99.90;;;;;;6126505;23;20264;-83
2021/07/09 00:29:32;;;;;;;10.82;4.07;;;17.50;99.90;;;;;;6125764;23;20382;-82
2021/07/09 00:31:59;;;;;;;6.38;3.60;;;17.70;99.90;;;;;;6126556;23;20188;-82
2021/07/09 00:34:26;;;;;;;6.07;4.18;;;17.90;99.90;;;;;;6126219;23;20284;-82
2021/07/09 00:36:53;;;;;;;7.85;4.45;;;17.90;99.90;;;;;;6126443;23;20204;-83
2021/07/09 00:39:20;;;;;;;4.45;3.60;;;17.80;99.90;;;;;;6125986;23;20229;-83
2021/07/09 00:41:48;;;;;;;8.07;4.50;;;17.90;99.90;;;;;;6125878;23;20267;-83
2021/07/09 00:44:15;;;;;;;7.10;4.32;;;17.90;99.90;;;;;;6126304;23;20567;-83
2021/07/09 00:46:43;;;;;;;5.22;4.28;;;17.90;99.90;;;;;;6125930;23;20255;-82
2021/07/09 00:49:11;;;;;;;4.78;4.05;;;17.80;99.90;;;;;;6125352;23;20283;-82
2021/07/09 00:51:40;;;;;;;6.95;4.03;;;17.80;99.90;;;;;;6126121;23;20252;-83
2021/07/09 00:54:07;;;;;;;7.45;5.20;;;17.70;99.90;;;;;;6169088;23;20326;-80
2021/07/09 00:56:35;;;;;;;8.10;4.38;;;17.60;99.90;;;;;;6187715;23;20259;-80
2021/07/09 00:59:05;;;;;;;5.50;3.63;;;17.80;99.90;;;;;;6177208;23;20256;-82
2021/07/09 01:01:32;;;;;;;5.47;3.90;;;17.80;99.90;;;;;;6157658;23;20259;-84
2021/07/09 01:03:59;;;;;;;4.28;3.80;;;17.50;99.90;;;;;;6157323;23;20204;-80
2021/07/09 01:06:26;;;;;;;5.15;3.90;;;17.50;99.90;;;;;;6158157;23;20204;-80
2021/07/09 01:08:53;;;;;;;7.53;3.95;;;17.40;99.90;;;;;;6156686;23;20232;-81
2021/07/09 01:11:21;;;;;;;7.13;3.72;;;17.50;99.90;;;;;;6157299;23;20180;-82
2021/07/09 01:13:48;;;;;;;5.53;3.90;;;17.60;99.90;;;;;;6157112;23;20251;-82
2021/07/09 01:16:16;;;;;;;4.22;3.83;;;17.40;99.90;;;;;;6155676;23;20259;-80
2021/07/09 01:18:43;;;;;;;4.82;3.97;;;17.50;99.90;;;;;;6156415;23;20232;-82
2021/07/09 01:21:10;;;;;;;4.72;3.78;;;17.40;99.90;;;;;;6156472;23;20195;-82
2021/07/09 01:23:39;;;;;;;6.53;4.07;;;17.50;99.90;;;;;;6156811;23;20279;-78
2021/07/09 01:26:09;;;;;;;8.30;4.18;;;17.50;99.90;;;;;;6156043;23;20223;-78
2021/07/09 01:28:37;;;;;;;7.82;5.25;;;17.70;99.90;;;;;;6156231;23;20662;-78
2021/07/09 01:31:06;;;;;;;8.82;5.40;;;17.80;99.90;;;;;;6155050;23;20184;-77
2021/07/09 01:33:33;;;;;;;8.63;4.82;;;17.80;99.90;;;;;;6154368;23;20276;-78
2021/07/09 01:35:59;;;;;;;8.82;4.63;;;17.80;99.90;;;;;;6154118;23;20263;-79
2021/07/09 01:38:26;;;;;;;10.07;4.55;;;17.70;99.90;;;;;;6153944;23;20583;-81
2021/07/09 01:40:53;;;;;;;6.20;4.65;;;17.70;99.90;;;;;;6153959;23;20211;-79
2021/07/09 01:43:23;;;;;;;10.45;4.80;;;17.60;99.90;;;;;;6155519;23;20180;-80
2021/07/09 01:45:51;;;;;;;10.05;4.38;;;17.70;99.90;;;;;;6156897;23;20220;-82
2021/07/09 01:48:18;;;;;;;9.30;4.50;;;17.70;99.90;;;;;;6154523;23;20473;-81
2021/07/09 01:50:45;;;;;;;7.72;4.60;;;17.70;99.90;;;;;;6156656;23;20512;-80
2021/07/09 01:53:11;;;;;;;11.00;5.00;;;17.60;99.90;;;;;;6153745;23;20291;-81
2021/07/09 01:55:38;;;;;;;9.63;4.70;;;17.50;99.90;;;;;;6156526;23;20207;-82
2021/07/09 01:58:05;;;;;;;10.40;4.45;;;17.50;99.90;;;;;;6156814;23;20258;-79
2021/07/09 02:00:34;;;;;;;12.88;4.63;;;17.50;99.90;;;;;;6157100;23;20227;-81
2021/07/09 02:03:02;;;;;;;15.82;4.88;;;17.50;99.90;;;;;;6157307;23;20173;-82
2021/07/09 02:05:29;;;;;;;10.93;4.50;;;17.40;99.90;;;;;;6157151;23;20177;-81
2021/07/09 02:07:57;;;;;;;13.13;4.68;;;17.40;99.90;;;;;;6158070;23;20176;-82
2021/07/09 02:10:25;;;;;;;7.43;4.70;;;17.40;99.90;;;;;;6157048;23;20208;-81
2021/07/09 02:12:54;;;;;;;9.40;4.95;;;17.30;99.90;;;;;;6157625;23;20177;-80
2021/07/09 02:15:24;;;;;;;12.85;5.25;;;17.30;99.90;;;;;;6157223;23;20181;-82
2021/07/09 02:17:53;;;;;;;12.02;5.40;;;17.40;99.90;;;;;;6156287;23;20192;-81
2021/07/09 02:20:22;;;;;;;12.93;4.93;;;17.40;99.90;;;;;;6157085;23;20227;-79
2021/07/09 02:22:49;;;;;;;10.98;5.75;;;17.30;99.90;;;;;;6156463;23;20222;-82
2021/07/09 02:25:17;;;;;;;12.82;5.43;;;17.30;99.90;;;;;;6156572;23;20186;-79
2021/07/09 02:27:47;;;;;;;12.25;6.00;;;17.30;99.90;;;;;;6156081;23;20259;-81
2021/07/09 02:30:17;;;;;;;11.05;5.80;;;17.30;99.90;;;;;;6156838;23;20223;-80
2021/07/09 02:32:45;;;;;;;7.72;5.55;;;17.30;99.90;;;;;;6154312;23;20185;-81
2021/07/09 02:35:16;;;;;;;11.02;5.47;;;17.30;99.90;;;;;;6155107;23;20522;-83
2021/07/09 02:37:43;;;;;;;12.13;5.93;;;17.30;99.90;;;;;;6157808;23;20553;-77
2021/07/09 02:40:12;;;;;;;11.63;6.15;;;17.20;99.90;;;;;;6154718;23;20537;-82
2021/07/09 02:42:40;;;;;;;13.40;6.70;;;17.20;99.90;;;;;;6156058;23;20176;-82
2021/07/09 02:45:08;;;;;;;11.20;7.03;;;17.20;99.90;;;;;;6154568;23;20223;-80
2021/07/09 02:47:36;;;;;;;15.93;7.00;;;17.20;99.90;;;;;;6156757;23;20187;-80
2021/07/09 02:50:07;;;;;;;9.77;6.78;;;17.20;99.90;;;;;;6156839;23;20228;-79
2021/07/09 02:52:35;;;;;;;11.50;7.32;;;17.20;99.90;;;;;;6157011;23;20486;-81
2021/07/09 02:55:02;;;;;;;11.30;7.43;;;17.20;99.90;;;;;;6156835;23;20634;-81
2021/07/09 02:57:29;;;;;;;20.02;8.27;;;17.20;99.90;;;;;;6157114;23;20187;-79
2021/07/09 02:59:56;;;;;;;10.25;7.55;;;17.20;99.90;;;;;;6155923;23;20271;-81
2021/07/09 03:02:23;;;;;;;15.10;7.97;;;17.20;99.90;;;;;;6156425;23;20676;-80
2021/07/09 03:04:50;;;;;;;17.42;8.02;;;17.20;99.90;;;;;;6156297;23;20252;-81
2021/07/09 03:07:17;;;;;;;18.70;8.38;;;17.30;99.90;;;;;;6156761;23;20263;-80
2021/07/09 03:09:45;;;;;;;16.40;8.50;;;17.30;99.90;;;;;;6155804;23;20689;-79
2021/07/09 03:12:11;;;;;;;15.70;9.65;;;17.30;99.90;;;;;;6157376;23;20251;-78
2021/07/09 03:14:40;;;;;;;17.35;9.15;;;17.20;99.90;;;;;;6154935;23;20198;-82
2021/07/09 03:17:07;;;;;;;18.05;9.45;;;17.20;99.90;;;;;;6155252;23;20207;-81
2021/07/09 03:19:33;;;;;;;20.15;13.35;;;17.30;99.90;;;;;;6154730;23;20231;-81
2021/07/09 03:22:00;;;;;;;15.02;9.95;;;17.30;99.90;;;;;;6156124;23;20184;-82
2021/07/09 03:24:27;;;;;;;15.32;9.00;;;17.20;99.90;;;;;;6153677;23;20255;-81
2021/07/09 03:26:55;;;;;;;14.85;9.65;;;17.20;99.90;;;;;;6156485;23;20259;-79
2021/07/09 03:29:22;;;;;;;16.20;10.05;;;17.20;99.90;;;;;;6157318;23;20710;-80
2021/07/09 03:31:49;;;;;;;13.85;9.60;;;17.30;99.90;;;;;;6157049;23;20176;-81
2021/07/09 03:34:16;;;;;;;17.40;10.25;;;17.20;99.90;;;;;;6156826;23;20206;-78
2021/07/09 03:36:44;;;;;;;15.88;10.82;;;17.20;99.90;;;;;;6156855;23;20546;-81
2021/07/09 03:39:11;;;;;;;17.52;11.18;;;17.20;99.90;;;;;;6156342;23;20212;-81
2021/07/09 03:41:39;;;;;;;23.77;11.15;;;17.10;99.90;;;;;;6156818;23;20806;-80
2021/07/09 03:44:09;;;;;;;18.02;11.15;;;17.20;99.90;;;;;;6156490;23;20191;-79
2021/07/09 03:46:36;;;;;;;18.80;11.50;;;17.30;99.90;;;;;;6156835;23;20185;-79
2021/07/09 03:49:04;;;;;;;15.60;11.30;;;17.30;99.90;;;;;;6156145;23;20275;-81
2021/07/09 03:51:31;;;;;;;18.90;13.18;;;17.20;99.90;;;;;;6156364;23;20177;-82
2021/07/09 03:53:58;;;;;;;19.27;12.13;;;17.30;99.90;;;;;;6155910;23;20283;-79
2021/07/09 03:56:28;;;;;;;21.38;12.55;;;17.30;99.90;;;;;;6156502;23;20184;-78
2021/07/09 03:58:55;;;;;;;21.38;13.45;;;17.30;99.90;;;;;;6156222;23;20256;-81
2021/07/09 04:01:24;;;;;;;21.95;12.68;;;17.40;99.90;;;;;;6155586;23;20200;-78
2021/07/09 04:03:50;;;;;;;22.05;13.18;;;17.30;99.90;;;;;;6157770;23;20211;-80
2021/07/09 04:06:17;;;;;;;19.13;13.10;;;17.30;99.90;;;;;;6156910;23;20237;-80
2021/07/09 04:08:44;;;;;;;23.00;13.65;;;17.30;99.90;;;;;;6158013;23;20201;-78
2021/07/09 04:11:11;;;;;;;23.65;13.82;;;17.30;99.90;;;;;;6156698;23;20586;-79
2021/07/09 04:13:38;;;;;;;17.30;13.88;;;17.30;99.90;;;;;;6158392;23;20551;-78
2021/07/09 04:16:05;;;;;;;19.55;13.27;;;17.40;99.90;;;;;;6154871;23;20627;-79
2021/07/09 04:18:34;;;;;;;19.63;12.95;;;17.50;99.90;;;;;;6154844;23;20263;-80
2021/07/09 04:21:01;;;;;;;17.75;12.93;;;17.40;99.90;;;;;;6153866;23;20634;-82
2021/07/09 04:23:28;;;;;;;17.23;13.05;;;17.40;99.90;;;;;;6153522;23;20263;-81
2021/07/09 04:25:55;;;;;;;16.88;12.48;;;17.40;99.90;;;;;;6154397;23;20200;-79
2021/07/09 04:28:22;;;;;;;20.20;12.90;;;17.40;99.90;;;;;;6154237;23;20192;-83
2021/07/09 04:30:49;;;;;;;19.55;12.48;;;17.50;99.90;;;;;;6152779;23;20239;-82
2021/07/09 04:33:16;;;;;;;20.58;13.27;;;17.60;99.90;;;;;;6151719;23;20634;-82
2021/07/09 04:35:44;;;;;;;16.02;11.70;;;17.60;99.90;;;;;;6153173;23;20275;-80
2021/07/09 04:38:11;;;;;;;18.17;12.70;;;17.60;99.90;;;;;;6154507;23;20271;-79
2021/07/09 04:40:38;;;;;;;17.77;12.77;;;17.70;99.90;;;;;;6152254;23;20259;-82
2021/07/09 04:43:05;;;;;;;17.50;12.05;;;17.60;99.90;;;;;;6152971;23;20190;-81
2021/07/09 04:45:32;;;;;;;15.60;13.13;;;17.80;99.90;;;;;;6154279;23;20726;-80
2021/07/09 04:47:59;;;;;;;22.17;13.77;;;17.70;99.90;;;;;;6152954;23;20681;-79
2021/07/09 04:50:26;;;;;;;19.60;13.98;;;17.70;99.90;;;;;;6152660;23;20204;-80
2021/07/09 04:52:54;;;;;;;18.95;13.45;;;17.70;99.90;;;;;;6151956;23;20188;-79
2021/07/09 04:55:21;;;;;;;19.75;13.27;;;17.70;99.90;;;;;;6151397;23;20232;-81
2021/07/09 04:57:48;;;;;;;19.40;13.82;;;17.60;99.90;;;;;;6150720;23;20226;-81
2021/07/09 05:00:15;;;;;;;22.27;14.70;;;17.70;99.90;;;;;;6152478;23;20745;-83
2021/07/09 05:02:42;;;;;;;21.30;14.00;;;17.70;99.90;;;;;;6155065;23;20358;-80
2021/07/09 05:05:15;;;;;;;19.23;13.25;;;17.70;99.90;;;;;;6154470;23;20183;-82
2021/07/09 05:07:42;;;;;;;20.58;14.32;;;17.70;99.90;;;;;;6154542;23;20276;-81
2021/07/09 05:10:11;;;;;;;20.52;14.82;;;17.80;99.90;;;;;;6154729;23;20256;-81
2021/07/09 05:12:38;;;;;;;20.58;15.00;;;17.80;99.90;;;;;;6154871;23;20498;-81
2021/07/09 05:15:06;;;;;;;22.00;15.45;;;17.80;99.90;;;;;;6155164;23;20272;-83
2021/07/09 05:17:34;;;;;;;20.58;14.88;;;17.80;99.90;;;;;;6154138;23;20215;-83
2021/07/09 05:20:01;;;;;;;17.60;13.85;;;17.80;99.90;;;;;;6155030;23;20200;-83
2021/07/09 05:22:28;;;;;;;20.20;14.57;;;17.80;99.90;;;;;;6155373;23;20176;-81
2021/07/09 05:24:56;;;;;;;21.48;15.77;;;17.90;99.90;;;;;;6155228;23;20259;-84
2021/07/09 05:27:27;;;;;;;24.23;15.63;;;17.90;99.90;;;;;;6155658;23;20164;-81
2021/07/09 05:29:54;;;;;;;20.23;16.02;;;17.90;99.90;;;;;;6154324;23;20264;-80
2021/07/09 05:32:23;;;;;;;21.30;15.75;;;17.80;99.90;;;;;;6155560;23;20299;-84
2021/07/09 05:34:50;;;;;;;22.98;17.25;;;17.90;99.90;;;;;;6153897;23;20210;-82
2021/07/09 05:37:18;;;;;;;22.83;17.38;;;17.90;99.90;;;;;;6155919;23;20198;-83
2021/07/09 05:39:45;;;;;;;26.92;17.30;;;18.00;99.90;;;;;;6153039;23;20224;-84
2021/07/09 05:42:12;;;;;;;22.45;16.65;;;17.90;99.90;;;;;;6156813;23;20188;-82
2021/07/09 05:44:40;;;;;;;25.58;16.55;;;17.90;99.90;;;;;;6155710;23;20639;-83
2021/07/09 05:47:07;;;;;;;24.73;16.77;;;18.00;99.90;;;;;;6156881;23;20352;-81
2021/07/09 05:49:34;;;;;;;21.73;17.05;;;18.00;99.90;;;;;;6155176;23;20206;-82
2021/07/09 05:52:01;;;;;;;23.70;16.27;;;18.00;99.90;;;;;;6155568;23;20184;-81
2021/07/09 05:54:28;;;;;;;25.33;16.42;;;17.90;99.90;;;;;;6154044;23;20287;-83
2021/07/09 05:56:55;;;;;;;23.70;17.45;;;17.90;99.90;;;;;;6154917;23;20236;-81
2021/07/09 05:59:21;;;;;;;22.45;17.33;;;17.90;99.90;;;;;;6157088;23;20663;-82
2021/07/09 06:01:50;;;;;;;26.92;17.05;;;17.90;99.90;;;;;;6153223;23;20180;-82
2021/07/09 06:04:17;;;;;;;25.35;17.67;;;17.90;99.90;;;;;;6153742;23;20176;-80
2021/07/09 06:06:44;;;;;;;22.67;16.83;;;17.90;99.90;;;;;;6155280;23;20187;-83
2021/07/09 06:09:11;;;;;;;22.05;17.17;;;18.00;99.90;;;;;;6154481;23;20361;-82
2021/07/09 06:11:38;;;;;;;24.92;17.38;;;17.90;99.90;;;;;;6155007;23;20263;-81
2021/07/09 06:14:05;;;;;;;24.20;17.88;;;18.00;99.90;;;;;;6155163;23;20204;-83
2021/07/09 06:16:32;;;;;;;23.05;17.13;;;18.10;99.90;;;;;;6155305;23;20184;-79
2021/07/09 06:19:00;;;;;;;22.33;17.50;;;18.10;99.90;;;;;;6155615;23;20224;-82
2021/07/09 06:21:27;;;;;;;22.88;17.30;;;18.10;99.90;;;;;;6155450;23;20184;-81
2021/07/09 06:23:54;;;;;;;20.80;17.02;;;18.00;99.90;;;;;;6155216;23;20263;-80
2021/07/09 06:26:22;;;;;;;22.45;17.10;;;18.00;99.90;;;;;;6154933;23;20176;-81
2021/07/09 06:28:49;;;;;;;22.25;16.15;;;18.00;99.90;;;;;;6155843;23;20224;-80
2021/07/09 06:31:16;;;;;;;22.15;16.38;;;18.00;99.90;;;;;;6154135;23;20833;-79
2021/07/09 06:33:43;;;;;;;21.70;16.92;;;17.90;99.90;;;;;;6155276;23;20575;-80
2021/07/09 06:36:11;;;;;;;20.17;16.25;;;18.00;99.90;;;;;;6154675;23;20181;-78
2021/07/09 06:38:38;;;;;;;22.67;17.38;;;18.10;99.90;;;;;;6154665;23;20256;-78
2021/07/09 06:41:05;;;;;;;23.98;17.92;;;18.10;99.90;;;;;;6156301;23;20267;-82
2021/07/09 06:43:32;;;;;;;22.33;17.85;;;18.00;99.90;;;;;;6157399;23;20630;-81
2021/07/09 06:45:59;;;;;;;23.02;18.17;;;18.00;99.90;;;;;;6155598;23;20303;-83
2021/07/09 06:48:25;;;;;;;22.90;17.98;;;17.90;99.90;;;;;;6154679;23;20267;-80
2021/07/09 06:50:52;;;;;;;24.63;20.40;;;18.00;99.90;;;;;;6154187;23;20577;-80
2021/07/09 06:53:20;;;;;;;23.70;18.48;;;18.00;99.90;;;;;;6153064;23;20239;-73
2021/07/09 06:55:47;;;;;;;23.90;18.02;;;18.00;99.90;;;;;;6151195;23;20195;-73
2021/07/09 06:58:14;;;;;;;23.67;17.77;;;17.90;99.90;;;;;;6151347;23;20164;-74
2021/07/09 07:00:41;;;;;;;22.48;18.17;;;17.90;99.90;;;;;;6151033;23;20674;-74
2021/07/09 07:03:08;;;;;;;21.50;17.10;;;17.90;99.90;;;;;;6150740;23;20482;-74
2021/07/09 07:05:35;;;;;;;20.30;16.55;;;17.90;99.90;;;;;;6151569;23;20445;-74
2021/07/09 07:08:13;;;;;;;19.05;15.85;;;17.90;99.90;;;;;;6151334;23;20161;-74
2021/07/09 07:10:41;;;;;;;19.63;16.73;;;17.90;99.90;;;;;;6150951;23;20160;-73
2021/07/09 07:13:08;;;;;;;21.15;17.30;;;17.80;99.90;;;;;;6151236;23;20275;-74
2021/07/09 07:15:35;;;;;;;24.90;17.42;;;17.90;99.90;;;;;;6150635;23;20188;-73
2021/07/09 07:18:08;;;;;;;20.27;16.40;;;17.80;99.90;;;;;;6151320;23;20549;-73
2021/07/09 07:20:36;;;;;;;21.55;17.17;;;17.80;99.90;;;;;;6151185;23;20255;-74
2021/07/09 07:23:03;;;;;;;24.23;19.00;;;17.80;99.90;;;;;;6151173;23;20164;-74
2021/07/09 07:25:30;;;;;;;26.27;19.27;;;17.80;99.90;;;;;;6149195;23;20165;-73
2021/07/09 07:27:58;;;;;;;23.30;18.65;;;17.80;99.90;;;;;;6151768;23;20169;-73
2021/07/09 07:30:25;;;;;;;24.05;19.02;;;17.80;99.90;;;;;;6151691;23;20165;-73
2021/07/09 07:32:51;;;;;;;26.13;19.15;;;17.80;99.90;;;;;;6151247;23;20247;-70
2021/07/09 07:35:18;;;;;;;24.73;20.27;;;17.90;99.90;;;;;;6152269;23;20265;-71
2021/07/09 07:37:45;;;;;;;24.85;19.08;;;17.90;99.90;;;;;;6153308;23;20165;-70
2021/07/09 07:40:12;;;;;;;24.17;19.88;;;18.00;99.90;;;;;;6149994;23;20288;-71
2021/07/09 07:42:39;;;;;;;23.02;18.25;;;18.00;99.90;;;;;;6153596;23;20165;-71
2021/07/09 07:45:08;;;;;;;21.13;17.15;;;18.00;99.90;;;;;;6153290;23;20610;-71
2021/07/09 07:47:35;;;;;;;22.77;16.90;;;17.90;99.90;;;;;;6153537;23;20458;-71
2021/07/09 07:50:02;;;;;;;21.55;17.05;;;17.90;99.90;;;;;;6153192;23;20171;-71
2021/07/09 07:52:29;;;;;;;20.95;16.75;;;18.00;99.90;;;;;;6153605;23;20539;-71
2021/07/09 07:54:56;;;;;;;18.45;15.70;;;18.00;99.90;;;;;;6152254;23;20210;-70
2021/07/09 07:57:23;;;;;;;20.05;14.75;;;17.90;99.90;;;;;;6153371;23;20247;-71
2021/07/09 07:59:50;;;;;;;20.20;15.98;;;17.90;99.90;;;;;;6152535;23;20223;-70
2021/07/09 08:02:19;;;;;;;17.45;14.52;;;17.90;99.90;;;;;;6153256;23;20169;-70
2021/07/09 08:04:47;;;;;;;19.63;14.30;;;18.00;99.90;;;;;;6153212;23;20169;-70
2021/07/09 08:07:14;;;;;;;17.55;14.32;;;18.10;99.90;;;;;;6152548;23;20249;-70
2021/07/09 08:09:41;;;;;;;19.02;14.27;;;18.00;99.90;;;;;;6152743;23;20164;-70
2021/07/09 08:12:08;;;;;;;18.02;14.18;;;18.10;99.90;;;;;;6152511;23;20247;-70
2021/07/09 08:14:35;;;;;;;17.17;13.85;;;18.00;99.90;;;;;;6153174;23;20220;-71
2021/07/09 08:17:02;;;;;;;17.23;14.35;;;18.00;99.90;;;;;;6153209;23;20207;-70
2021/07/09 08:19:31;;;;;;;18.13;15.10;;;18.10;99.90;;;;;;6153135;23;20161;-70
2021/07/09 08:21:58;;;;;;;18.27;14.27;;;18.20;99.90;;;;;;6152802;23;20604;-70
2021/07/09 08:24:25;;;;;;;18.77;14.85;;;18.00;99.90;;;;;;6152603;23;20164;-70
2021/07/09 08:26:52;;;;;;;18.52;14.63;;;18.30;99.90;;;;;;6152876;23;20161;-70
2021/07/09 08:29:19;;;;;;;19.00;14.35;;;18.00;99.90;;;;;;6152842;23;20617;-70
2021/07/09 08:31:46;;;;;;;20.50;14.60;;;18.20;99.90;;;;;;6152578;23;20244;-70
2021/07/09 08:34:12;;;;;;;20.02;14.52;;;18.30;99.90;;;;;;6152225;23;20169;-71
2021/07/09 08:36:41;;;;;;;18.10;15.38;;;18.30;99.90;;;;;;6152468;23;20185;-70
2021/07/09 08:39:07;;;;;;;20.35;15.05;;;18.20;99.90;;;;;;6150099;23;20180;-70
2021/07/09 08:41:34;;;;;;;18.98;15.25;;;18.20;99.90;;;;;;6152973;23;20168;-70
2021/07/09 08:44:01;;;;;;;20.05;16.08;;;18.20;99.90;;;;;;6152509;23;20164;-70
2021/07/09 08:46:29;;;;;;;21.33;16.42;;;18.20;99.90;;;;;;6152609;23;20225;-71
2021/07/09 08:48:56;;;;;;;21.85;16.63;;;18.20;99.90;;;;;;6152095;23;20168;-70
2021/07/09 08:51:22;;;;;;;20.83;16.27;;;18.30;99.90;;;;;;6151979;23;20219;-70
2021/07/09 08:53:51;;;;;;;23.02;17.38;;;18.20;99.90;;;;;;6152301;23;20194;-70
2021/07/09 08:56:18;;;;;;;23.55;18.30;;;18.30;99.90;;;;;;6152517;23;20650;-71
2021/07/09 08:58:45;;;;;;;20.27;16.75;;;18.20;99.90;;;;;;6152513;23;20160;-70
2021/07/09 09:01:14;;;;;;;22.67;18.27;;;18.20;99.90;;;;;;6152577;23;20176;-70
2021/07/09 09:03:41;;;;;;;21.77;16.80;;;18.20;99.90;;;;;;6152800;23;20172;-70
2021/07/09 09:06:16;;;;;;;21.65;17.40;;;18.30;99.90;;;;;;6152113;23;20169;-70
2021/07/09 09:08:43;;;;;;;23.75;18.95;;;18.40;99.90;;;;;;6152525;23;20165;-70
2021/07/09 09:11:12;;;;;;;23.27;17.60;;;18.50;99.90;;;;;;6152244;23;20164;-70
2021/07/09 09:13:39;;;;;;;20.92;17.85;;;18.50;99.90;;;;;;6151732;23;20275;-70
2021/07/09 09:16:09;;;;;;;21.50;17.90;;;18.40;99.90;;;;;;6152460;23;20191;-70
2021/07/09 09:18:39;;;;;;;20.80;17.52;;;18.50;99.90;;;;;;6152242;23;20263;-70
2021/07/09 09:24:39;;;;;;;19.67;14.02;;;18.40;99.90;;;;;;6195597;23;20179;-78
2021/07/09 09:34:21;;;;;;;18.42;14.27;;;18.40;99.90;;;;;;6141880;23;20176;-81
2021/07/09 09:37:09;;;;;;;17.98;14.63;;;18.30;99.90;;;;;;6167061;23;20197;-80
2021/07/09 09:45:28;;;;;;;17.42;14.32;;;18.40;99.90;;;;;;6131358;23;20178;-81
2021/07/09 09:48:06;;;;;;;18.08;13.23;;;18.50;99.90;;;;;;6164345;23;20188;-80
2021/07/09 09:50:53;;;;;;;18.98;14.77;;;18.40;99.90;;;;;;6163090;23;20239;-80
2021/07/09 09:53:43;;;;;;;18.90;14.35;;;18.40;99.90;;;;;;6163934;23;20223;-79
2021/07/09 09:56:10;;;;;;;21.48;14.80;;;18.40;99.90;;;;;;6163605;23;20215;-80
2021/07/09 09:58:38;;;;;;;17.90;14.65;;;18.60;99.90;;;;;;6163096;23;20191;-79
2021/07/09 10:01:05;;;;;;;18.88;15.32;;;18.50;99.90;;;;;;6161748;23;20185;-80
2021/07/09 10:03:32;;;;;;;19.50;15.15;;;18.60;99.90;;;;;;6160241;23;20199;-80
2021/07/09 10:06:03;;;;;;;17.25;14.50;;;18.60;99.90;;;;;;6161002;23;20176;-79
2021/07/09 10:08:30;;;;;;;19.90;14.52;;;18.50;99.90;;;;;;6161986;23;20208;-80
2021/07/09 10:10:58;;;;;;;19.40;15.35;;;18.90;99.90;;;;;;6161659;23;20208;-80
2021/07/09 10:13:27;;;;;;;19.58;14.70;;;18.70;99.90;;;;;;6162346;23;20251;-81
2021/07/09 10:15:55;;;;;;;18.05;14.98;;;18.60;99.90;;;;;;6161092;23;20662;-79
2021/07/09 10:18:23;;;;;;;17.80;15.20;;;18.60;99.90;;;;;;6162524;23;20161;-80
2021/07/09 10:20:50;;;;;;;19.20;16.80;;;18.70;99.90;;;;;;6161379;23;20203;-79
2021/07/09 10:23:20;;;;;;;18.20;15.57;;;18.70;99.90;;;;;;6162990;23;20191;-80
2021/07/09 10:25:49;;;;;;;19.45;16.02;;;18.70;99.90;;;;;;6160573;23;20509;-80
2021/07/09 10:28:18;;;;;;;20.65;16.40;;;18.70;99.90;;;;;;6158064;23;20232;-81
2021/07/09 10:30:45;;;;;;;20.35;16.67;;;18.90;99.90;;;;;;6156003;23;20180;-80
2021/07/09 10:33:28;;;;;;;20.15;15.82;;;18.80;99.90;;;;;;6161118;23;20243;-80
2021/07/09 10:35:56;;;;;;;21.40;16.13;;;18.80;99.90;;;;;;6160472;23;20192;-80
2021/07/09 10:38:25;;;;;;;20.38;15.73;;;18.80;99.90;;;;;;6160654;23;20968;-80
2021/07/09 10:40:52;;;;;;;18.60;15.80;;;18.70;99.90;;;;;;6154601;23;20513;-80
2021/07/09 10:43:20;;;;;;;19.27;16.13;;;18.60;99.90;;;;;;6156848;23;20531;-80
2021/07/09 10:45:47;;;;;;;20.35;15.93;;;18.70;99.90;;;;;;6149601;23;20180;-80
2021/07/09 10:48:16;;;;;;;19.77;16.45;;;18.60;99.90;;;;;;6151133;23;20180;-79
2021/07/09 10:50:45;;;;;;;18.92;16.17;;;18.50;99.90;;;;;;6153842;23;20184;-79
2021/07/09 10:53:26;;;;;;;19.40;16.00;;;18.70;99.90;;;;;;6152585;23;20316;-80
2021/07/09 10:55:57;;;;;;;18.27;15.55;;;18.50;99.90;;;;;;6151677;23;20199;-79
2021/07/09 10:58:37;;;;;;;17.77;14.70;;;18.50;99.90;;;;;;6156507;23;20184;-79
2021/07/09 11:01:15;;;;;;;18.35;14.93;;;18.50;99.90;;;;;;6151594;23;20493;-77
2021/07/09 11:03:43;;;;;;;18.13;15.38;;;18.50;99.90;;;;;;6151513;23;20199;-78
2021/07/09 11:06:12;;;;;;;17.55;15.25;;;18.50;99.90;;;;;;6151008;23;20239;-78
2021/07/09 11:08:52;;;;;;;15.88;13.63;;;18.50;99.90;;;;;;6154937;23;20175;-78
2021/07/09 11:11:32;;;;;;;16.58;13.52;;;18.50;99.90;;;;;;6130151;23;20239;-78
2021/07/09 11:14:00;;;;;;;18.48;15.35;;;18.50;99.90;;;;;;6130439;23;20161;-78
2021/07/09 11:16:30;;;;;;;19.98;15.57;;;18.60;99.90;;;;;;6154507;23;20186;-78
2021/07/09 11:19:07;;;;;;;18.63;15.25;;;18.70;99.90;;;;;;6155736;23;20243;-77
2021/07/09 11:22:01;;;;;;;18.95;15.43;;;18.60;99.90;;;;;;6156336;23;20164;-77
2021/07/09 11:24:30;;;;;;;20.20;16.35;;;18.70;99.90;;;;;;6130585;23;20248;-77
2021/07/09 11:26:59;;;;;;;18.92;15.52;;;18.80;99.90;;;;;;6155868;23;20160;-77
2021/07/09 11:29:32;;;;;;;18.58;16.27;;;18.80;99.90;;;;;;6156655;23;20176;-77
2021/07/09 11:32:00;;;;;;;19.58;16.98;;;18.80;99.90;;;;;;6155822;23;20167;-76
2021/07/09 11:34:28;;;;;;;16.50;14.73;;;19.00;99.90;;;;;;6154489;23;20167;-77
2021/07/09 11:36:57;;;;;;;19.17;15.57;;;19.00;99.90;;;;;;6156137;23;20191;-77
2021/07/09 11:39:26;;;;;;;18.55;14.07;;;19.10;99.90;;;;;;6156493;23;20583;-76
2021/07/09 11:41:57;;;;;;;19.08;15.85;;;19.00;99.90;;;;;;6156084;23;20161;-77
2021/07/09 11:44:25;;;;;;;18.38;15.52;;;19.00;99.90;;;;;;6156002;23;20211;-77
2021/07/09 11:46:54;;;;;;;17.38;15.38;;;19.00;99.90;;;;;;6156421;23;20157;-77
2021/07/09 11:49:23;;;;;;;17.90;15.57;;;18.90;99.90;;;;;;6156645;23;20490;-76
2021/07/09 11:51:51;;;;;;;18.35;15.48;;;19.00;99.90;;;;;;6155858;23;20239;-76
2021/07/09 11:54:26;;;;;;;18.70;15.80;;;19.00;99.90;;;;;;6156270;23;20243;-76
2021/07/09 11:56:56;;;;;;;16.45;14.75;;;19.10;99.90;;;;;;6154495;23;20180;-78
2021/07/09 11:59:23;;;;;;;18.58;15.48;;;19.10;99.90;;;;;;6156601;23;20165;-78
2021/07/09 12:02:01;;;;;;;19.80;16.92;;;19.10;99.90;;;;;;6155720;23;20188;-77
2021/07/09 12:04:32;;;;;;;20.90;16.70;;;19.10;99.90;;;;;;6155872;23;20164;-78
2021/07/09 12:07:20;;;;;;;18.83;16.30;;;19.20;99.90;;;;;;6155997;23;20156;-78
2021/07/09 12:09:49;;;;;;;19.52;17.42;;;19.10;99.90;;;;;;6155971;23;20602;-78
2021/07/09 12:12:17;;;;;;;20.48;16.70;;;19.10;99.90;;;;;;6156178;23;20502;-79
2021/07/09 12:14:57;;;;;;;20.25;16.90;;;19.10;99.90;;;;;;6156922;23;20474;-78
2021/07/09 12:17:25;;;;;;;19.80;16.85;;;19.10;99.90;;;;;;6124573;23;20236;-79
2021/07/09 12:19:53;;;;;;;18.60;16.60;;;19.10;99.90;;;;;;6149660;23;20267;-78
2021/07/09 12:22:24;;;;;;;18.60;16.52;;;19.20;99.90;;;;;;6146730;23;20519;-78
2021/07/09 12:24:52;;;;;;;20.15;17.02;;;19.20;99.90;;;;;;6150417;23;20192;-78
2021/07/09 12:27:22;;;;;;;19.38;16.40;;;19.20;99.90;;;;;;6151060;23;20184;-78
2021/07/09 12:29:49;;;;;;;19.15;17.17;;;19.20;99.90;;;;;;6148614;23;20184;-78
2021/07/09 12:32:16;;;;;;;17.80;15.90;;;19.40;99.90;;;;;;6151630;23;20180;-78
2021/07/09 12:34:43;;;;;;;18.05;16.10;;;19.40;99.90;;;;;;6150136;23;20187;-78
2021/07/09 12:37:10;;;;;;;18.90;16.95;;;19.30;99.90;;;;;;6151406;23;20200;-78
2021/07/09 12:39:37;;;;;;;18.60;16.65;;;19.30;99.90;;;;;;6150649;23;20191;-78
2021/07/09 12:42:12;;;;;;;18.77;16.58;;;19.40;99.90;;;;;;6151254;23;20187;-78
2021/07/09 12:44:55;;;;;;;19.48;17.30;;;19.40;99.90;;;;;;6151143;23;20186;-78
2021/07/09 12:47:22;;;;;;;20.73;17.58;;;19.30;99.90;;;;;;6150266;23;20584;-77
2021/07/09 12:49:49;;;;;;;18.45;16.45;;;19.30;99.90;;;;;;6149411;23;20572;-77
2021/07/09 12:52:17;;;;;;;21.08;18.50;;;19.30;99.90;;;;;;6151164;23;20707;-77
2021/07/09 12:54:43;;;;;;;19.95;17.63;;;19.40;99.90;;;;;;6156784;23;20208;-71